sensor_id;sensor_type;location;lat;lon;timestamp;noise_LAeq;noise_LA_min;noise_LA_max;noise_LA01;noise_LA95
46393;Laerm;32099;53.588;10.176;2023-06-22T00:00:53;32.85;31.20;37.19;;
46393;Laerm;32099;53.588;10.176;2023-06-22T00:03:19;32.93;31.56;35.07;;
46393;Laerm;32099;53.588;10.176;2023-06-22T00:05:46;33.16;31.76;35.46;;
46393;Laerm;32099;53.588;10.176;2023-06-22T00:08:12;33.30;31.53;44.44;;
46393;Laerm;32099;53.588;10.176;2023-06-22T00:10:37;32.86;31.46;43.40;;
46393;Laerm;32099;53.588;10.176;2023-06-22T00:13:03;33.07;30.99;41.73;;
46393;Laerm;32099;53.588;10.176;2023-06-22T00:15:28;32.94;31.12;35.78;;
46393;Laerm;32099;53.588;10.176;2023-06-22T00:17:54;32.79;31.23;36.14;;
46393;Laerm;32099;53.588;10.176;2023-06-22T00:20:19;32.79;31.37;35.45;;
46393;Laerm;32099;53.588;10.176;2023-06-22T00:22:44;48.90;31.35;69.27;;
46393;Laerm;32099;53.588;10.176;2023-06-22T00:25:11;44.30;31.27;66.69;;
46393;Laerm;32099;53.588;10.176;2023-06-22T00:27:37;32.95;31.57;35.01;;
46393;Laerm;32099;53.588;10.176;2023-06-22T00:30:03;32.41;30.87;35.02;;
46393;Laerm;32099;53.588;10.176;2023-06-22T00:32:28;35.34;31.35;47.25;;
46393;Laerm;32099;53.588;10.176;2023-06-22T00:34:53;32.71;31.29;34.68;;
46393;Laerm;32099;53.588;10.176;2023-06-22T00:37:19;32.81;31.18;34.99;;
46393;Laerm;32099;53.588;10.176;2023-06-22T00:39:44;33.39;31.57;36.86;;
46393;Laerm;32099;53.588;10.176;2023-06-22T00:42:09;33.17;31.44;36.22;;
46393;Laerm;32099;53.588;10.176;2023-06-22T00:44:36;33.68;31.62;41.07;;
46393;Laerm;32099;53.588;10.176;2023-06-22T00:47:02;34.21;31.59;42.82;;
46393;Laerm;32099;53.588;10.176;2023-06-22T00:49:28;35.72;31.41;49.59;;
46393;Laerm;32099;53.588;10.176;2023-06-22T00:51:54;34.19;31.78;45.32;;
46393;Laerm;32099;53.588;10.176;2023-06-22T00:54:20;33.86;31.28;39.59;;
46393;Laerm;32099;53.588;10.176;2023-06-22T00:56:51;33.69;31.71;40.09;;
46393;Laerm;32099;53.588;10.176;2023-06-22T00:59:20;34.87;32.31;37.88;;
46393;Laerm;32099;53.588;10.176;2023-06-22T01:01:45;34.46;31.77;41.84;;
46393;Laerm;32099;53.588;10.176;2023-06-22T01:04:11;34.86;32.12;38.58;;
46393;Laerm;32099;53.588;10.176;2023-06-22T01:06:43;34.63;32.23;38.74;;
46393;Laerm;32099;53.588;10.176;2023-06-22T01:09:15;34.05;31.45;39.91;;
46393;Laerm;32099;53.588;10.176;2023-06-22T01:11:54;35.56;32.56;39.88;;
46393;Laerm;32099;53.588;10.176;2023-06-22T01:14:31;34.07;31.56;43.10;;
46393;Laerm;32099;53.588;10.176;2023-06-22T01:17:01;35.92;32.59;40.33;;
46393;Laerm;32099;53.588;10.176;2023-06-22T01:19:41;35.98;32.53;41.28;;
46393;Laerm;32099;53.588;10.176;2023-06-22T01:22:10;35.95;31.85;44.22;;
46393;Laerm;32099;53.588;10.176;2023-06-22T01:30:49;35.35;32.34;46.26;;
46393;Laerm;32099;53.588;10.176;2023-06-22T01:33:28;35.67;32.59;39.26;;
46393;Laerm;32099;53.588;10.176;2023-06-22T01:35:54;36.45;33.23;42.99;;
46393;Laerm;32099;53.588;10.176;2023-06-22T01:38:19;36.58;32.70;50.01;;
46393;Laerm;32099;53.588;10.176;2023-06-22T01:40:45;43.42;32.78;59.95;;
46393;Laerm;32099;53.588;10.176;2023-06-22T01:43:11;46.95;33.88;62.46;;
46393;Laerm;32099;53.588;10.176;2023-06-22T01:45:36;47.45;34.03;62.70;;
46393;Laerm;32099;53.588;10.176;2023-06-22T01:48:02;48.94;33.83;62.91;;
46393;Laerm;32099;53.588;10.176;2023-06-22T01:50:28;49.60;34.84;62.96;;
46393;Laerm;32099;53.588;10.176;2023-06-22T01:52:53;50.68;35.90;66.46;;
46393;Laerm;32099;53.588;10.176;2023-06-22T01:55:19;49.26;35.77;64.96;;
46393;Laerm;32099;53.588;10.176;2023-06-22T01:57:44;50.08;35.83;63.72;;
46393;Laerm;32099;53.588;10.176;2023-06-22T02:00:13;49.70;35.69;62.66;;
46393;Laerm;32099;53.588;10.176;2023-06-22T02:05:22;60.36;36.30;76.72;;
46393;Laerm;32099;53.588;10.176;2023-06-22T02:08:01;57.53;36.35;76.78;;
46393;Laerm;32099;53.588;10.176;2023-06-22T02:10:29;58.67;35.44;75.91;;
46393;Laerm;32099;53.588;10.176;2023-06-22T02:12:57;59.38;35.38;74.54;;
46393;Laerm;32099;53.588;10.176;2023-06-22T02:15:24;57.72;35.57;74.28;;
46393;Laerm;32099;53.588;10.176;2023-06-22T02:17:50;59.00;35.61;76.75;;
46393;Laerm;32099;53.588;10.176;2023-06-22T02:20:15;62.04;35.99;79.84;;
46393;Laerm;32099;53.588;10.176;2023-06-22T02:22:41;61.36;34.89;79.18;;
46393;Laerm;32099;53.588;10.176;2023-06-22T02:25:06;57.78;35.08;77.10;;
46393;Laerm;32099;53.588;10.176;2023-06-22T02:27:32;50.50;33.99;68.32;;
46393;Laerm;32099;53.588;10.176;2023-06-22T02:29:57;57.03;36.08;75.30;;
46393;Laerm;32099;53.588;10.176;2023-06-22T02:32:22;48.87;34.51;70.03;;
46393;Laerm;32099;53.588;10.176;2023-06-22T02:34:48;56.78;34.91;74.17;;
46393;Laerm;32099;53.588;10.176;2023-06-22T02:37:13;43.67;34.02;60.17;;
46393;Laerm;32099;53.588;10.176;2023-06-22T02:39:42;58.12;34.90;76.31;;
46393;Laerm;32099;53.588;10.176;2023-06-22T02:42:07;59.36;34.96;75.93;;
46393;Laerm;32099;53.588;10.176;2023-06-22T02:44:32;59.79;35.38;77.42;;
46393;Laerm;32099;53.588;10.176;2023-06-22T02:46:58;51.85;34.59;75.24;;
46393;Laerm;32099;53.588;10.176;2023-06-22T02:49:23;47.00;34.91;65.72;;
46393;Laerm;32099;53.588;10.176;2023-06-22T02:51:49;38.48;34.05;48.74;;
46393;Laerm;32099;53.588;10.176;2023-06-22T02:54:14;52.34;33.89;72.56;;
46393;Laerm;32099;53.588;10.176;2023-06-22T02:56:39;55.20;34.14;75.23;;
46393;Laerm;32099;53.588;10.176;2023-06-22T02:59:06;45.88;34.41;71.19;;
46393;Laerm;32099;53.588;10.176;2023-06-22T03:01:31;41.40;34.56;55.09;;
46393;Laerm;32099;53.588;10.176;2023-06-22T03:04:04;40.08;33.73;53.91;;
46393;Laerm;32099;53.588;10.176;2023-06-22T03:06:30;39.83;33.37;53.33;;
46393;Laerm;32099;53.588;10.176;2023-06-22T03:09:05;47.80;33.66;77.54;;
46393;Laerm;32099;53.588;10.176;2023-06-22T03:11:31;38.27;33.61;48.83;;
46393;Laerm;32099;53.588;10.176;2023-06-22T03:13:56;36.90;33.80;45.40;;
46393;Laerm;32099;53.588;10.176;2023-06-22T03:16:22;38.38;33.67;51.99;;
46393;Laerm;32099;53.588;10.176;2023-06-22T03:18:47;38.40;34.25;49.97;;
46393;Laerm;32099;53.588;10.176;2023-06-22T03:21:12;40.73;34.55;56.62;;
46393;Laerm;32099;53.588;10.176;2023-06-22T03:23:40;42.36;34.30;55.86;;
46393;Laerm;32099;53.588;10.176;2023-06-22T03:26:05;49.69;34.87;69.40;;
46393;Laerm;32099;53.588;10.176;2023-06-22T03:28:30;37.48;34.67;52.61;;
46393;Laerm;32099;53.588;10.176;2023-06-22T03:30:58;45.90;35.23;64.43;;
46393;Laerm;32099;53.588;10.176;2023-06-22T03:33:24;39.09;34.94;50.20;;
46393;Laerm;32099;53.588;10.176;2023-06-22T03:35:49;49.52;34.73;70.20;;
46393;Laerm;32099;53.588;10.176;2023-06-22T03:38:15;39.92;35.04;49.29;;
46393;Laerm;32099;53.588;10.176;2023-06-22T03:40:41;39.07;35.26;45.90;;
46393;Laerm;32099;53.588;10.176;2023-06-22T03:43:06;45.26;35.32;60.88;;
46393;Laerm;32099;53.588;10.176;2023-06-22T03:45:31;46.96;35.20;69.15;;
46393;Laerm;32099;53.588;10.176;2023-06-22T03:47:57;54.93;35.67;74.33;;
46393;Laerm;32099;53.588;10.176;2023-06-22T03:50:22;53.26;35.61;71.93;;
46393;Laerm;32099;53.588;10.176;2023-06-22T03:52:48;51.68;35.78;72.78;;
46393;Laerm;32099;53.588;10.176;2023-06-22T03:55:13;51.71;35.44;73.79;;
46393;Laerm;32099;53.588;10.176;2023-06-22T03:57:38;46.68;35.86;65.81;;
46393;Laerm;32099;53.588;10.176;2023-06-22T04:00:04;39.71;35.39;48.67;;
46393;Laerm;32099;53.588;10.176;2023-06-22T04:02:33;45.11;35.46;63.77;;
46393;Laerm;32099;53.588;10.176;2023-06-22T04:04:58;40.33;35.18;55.78;;
46393;Laerm;32099;53.588;10.176;2023-06-22T04:07:23;48.85;35.69;66.42;;
46393;Laerm;32099;53.588;10.176;2023-06-22T04:09:49;51.62;36.94;68.97;;
46393;Laerm;32099;53.588;10.176;2023-06-22T04:12:14;41.86;35.53;51.49;;
46393;Laerm;32099;53.588;10.176;2023-06-22T04:14:39;39.92;35.63;53.29;;
46393;Laerm;32099;53.588;10.176;2023-06-22T04:17:05;48.35;35.34;64.88;;
46393;Laerm;32099;53.588;10.176;2023-06-22T04:19:30;45.27;35.21;62.53;;
46393;Laerm;32099;53.588;10.176;2023-06-22T04:21:56;47.57;35.96;59.46;;
46393;Laerm;32099;53.588;10.176;2023-06-22T04:24:21;43.56;35.76;56.14;;
46393;Laerm;32099;53.588;10.176;2023-06-22T04:26:46;44.15;35.68;56.08;;
46393;Laerm;32099;53.588;10.176;2023-06-22T04:29:13;50.55;35.30;69.17;;
46393;Laerm;32099;53.588;10.176;2023-06-22T04:31:38;54.62;34.83;75.20;;
46393;Laerm;32099;53.588;10.176;2023-06-22T04:34:05;54.61;35.66;75.00;;
46393;Laerm;32099;53.588;10.176;2023-06-22T04:36:40;55.01;36.21;75.68;;
46393;Laerm;32099;53.588;10.176;2023-06-22T04:39:10;50.50;36.06;68.91;;
46393;Laerm;32099;53.588;10.176;2023-06-22T04:41:37;50.76;35.68;68.74;;
46393;Laerm;32099;53.588;10.176;2023-06-22T04:44:13;44.78;36.00;63.28;;
46393;Laerm;32099;53.588;10.176;2023-06-22T04:46:39;48.63;36.92;67.64;;
46393;Laerm;32099;53.588;10.176;2023-06-22T04:49:06;43.87;36.56;52.98;;
46393;Laerm;32099;53.588;10.176;2023-06-22T04:51:41;52.95;35.83;69.66;;
46393;Laerm;32099;53.588;10.176;2023-06-22T04:54:07;48.57;36.06;67.65;;
46393;Laerm;32099;53.588;10.176;2023-06-22T04:56:33;45.04;36.66;55.66;;
46393;Laerm;32099;53.588;10.176;2023-06-22T04:58:59;45.16;36.07;61.16;;
46393;Laerm;32099;53.588;10.176;2023-06-22T05:01:25;44.49;36.13;60.02;;
46393;Laerm;32099;53.588;10.176;2023-06-22T05:03:50;52.04;36.81;69.36;;
46393;Laerm;32099;53.588;10.176;2023-06-22T05:06:21;45.32;36.43;69.96;;
46393;Laerm;32099;53.588;10.176;2023-06-22T05:08:50;52.78;37.42;69.66;;
46393;Laerm;32099;53.588;10.176;2023-06-22T05:11:15;49.22;38.58;67.02;;
46393;Laerm;32099;53.588;10.176;2023-06-22T05:13:40;47.44;38.93;64.64;;
46393;Laerm;32099;53.588;10.176;2023-06-22T05:16:05;50.05;39.13;69.09;;
46393;Laerm;32099;53.588;10.176;2023-06-22T05:18:31;50.74;37.99;70.04;;
46393;Laerm;32099;53.588;10.176;2023-06-22T05:20:58;53.75;38.87;72.14;;
46393;Laerm;32099;53.588;10.176;2023-06-22T05:23:23;53.95;38.05;72.56;;
46393;Laerm;32099;53.588;10.176;2023-06-22T05:25:48;51.18;38.01;70.47;;
46393;Laerm;32099;53.588;10.176;2023-06-22T05:28:13;43.31;37.83;60.79;;
46393;Laerm;32099;53.588;10.176;2023-06-22T05:30:39;53.96;38.29;74.55;;
46393;Laerm;32099;53.588;10.176;2023-06-22T05:33:04;50.18;38.38;71.50;;
46393;Laerm;32099;53.588;10.176;2023-06-22T05:35:29;49.33;39.34;66.22;;
46393;Laerm;32099;53.588;10.176;2023-06-22T05:37:55;52.62;39.26;70.46;;
46393;Laerm;32099;53.588;10.176;2023-06-22T05:40:21;49.13;38.61;66.03;;
46393;Laerm;32099;53.588;10.176;2023-06-22T05:42:46;48.05;37.98;63.47;;
46393;Laerm;32099;53.588;10.176;2023-06-22T05:45:11;57.13;38.20;71.76;;
46393;Laerm;32099;53.588;10.176;2023-06-22T05:47:37;54.82;37.58;72.86;;
46393;Laerm;32099;53.588;10.176;2023-06-22T05:50:02;60.65;38.10;78.86;;
46393;Laerm;32099;53.588;10.176;2023-06-22T05:52:31;60.18;36.13;78.03;;
46393;Laerm;32099;53.588;10.176;2023-06-22T05:54:57;56.15;36.05;72.79;;
46393;Laerm;32099;53.588;10.176;2023-06-22T05:57:22;54.01;35.74;72.33;;
46393;Laerm;32099;53.588;10.176;2023-06-22T05:59:47;55.69;35.87;75.22;;
46393;Laerm;32099;53.588;10.176;2023-06-22T06:02:12;58.27;37.04;78.46;;
46393;Laerm;32099;53.588;10.176;2023-06-22T06:04:38;56.16;36.37;73.71;;
46393;Laerm;32099;53.588;10.176;2023-06-22T06:07:03;52.00;35.20;67.23;;
46393;Laerm;32099;53.588;10.176;2023-06-22T06:09:28;43.36;34.99;64.66;;
46393;Laerm;32099;53.588;10.176;2023-06-22T06:11:54;56.67;34.88;78.08;;
46393;Laerm;32099;53.588;10.176;2023-06-22T06:14:19;57.39;36.09;75.24;;
46393;Laerm;32099;53.588;10.176;2023-06-22T06:16:45;54.44;34.14;75.27;;
46393;Laerm;32099;53.588;10.176;2023-06-22T06:19:10;52.97;33.44;76.19;;
46393;Laerm;32099;53.588;10.176;2023-06-22T06:21:35;53.58;33.35;73.11;;
46393;Laerm;32099;53.588;10.176;2023-06-22T06:24:02;56.94;33.02;74.36;;
46393;Laerm;32099;53.588;10.176;2023-06-22T06:26:27;50.16;33.55;67.61;;
46393;Laerm;32099;53.588;10.176;2023-06-22T06:28:58;54.53;33.81;71.07;;
46393;Laerm;32099;53.588;10.176;2023-06-22T06:31:24;54.65;32.33;74.09;;
46393;Laerm;32099;53.588;10.176;2023-06-22T06:33:49;53.47;34.27;71.85;;
46393;Laerm;32099;53.588;10.176;2023-06-22T06:36:15;54.75;33.57;71.81;;
46393;Laerm;32099;53.588;10.176;2023-06-22T06:38:40;55.73;33.31;73.79;;
46393;Laerm;32099;53.588;10.176;2023-06-22T06:41:06;49.63;32.75;65.93;;
46393;Laerm;32099;53.588;10.176;2023-06-22T06:43:31;50.09;32.35;69.82;;
46393;Laerm;32099;53.588;10.176;2023-06-22T06:45:56;48.95;32.53;68.57;;
46393;Laerm;32099;53.588;10.176;2023-06-22T06:48:21;48.79;32.26;67.44;;
46393;Laerm;32099;53.588;10.176;2023-06-22T06:50:47;53.15;33.72;69.67;;
46393;Laerm;32099;53.588;10.176;2023-06-22T06:53:12;55.40;33.86;72.09;;
46393;Laerm;32099;53.588;10.176;2023-06-22T06:55:37;58.41;34.29;76.36;;
46393;Laerm;32099;53.588;10.176;2023-06-22T06:58:03;55.91;32.90;76.65;;
46393;Laerm;32099;53.588;10.176;2023-06-22T07:00:32;53.78;32.05;70.82;;
46393;Laerm;32099;53.588;10.176;2023-06-22T07:02:58;47.02;31.88;65.07;;
46393;Laerm;32099;53.588;10.176;2023-06-22T07:05:23;51.33;32.09;67.98;;
46393;Laerm;32099;53.588;10.176;2023-06-22T07:07:48;55.16;34.25;69.43;;
46393;Laerm;32099;53.588;10.176;2023-06-22T07:10:14;55.06;33.20;73.55;;
46393;Laerm;32099;53.588;10.176;2023-06-22T07:12:40;51.47;32.63;67.08;;
46393;Laerm;32099;53.588;10.176;2023-06-22T07:15:07;53.74;32.71;72.97;;
46393;Laerm;32099;53.588;10.176;2023-06-22T07:17:33;51.78;32.58;69.16;;
46393;Laerm;32099;53.588;10.176;2023-06-22T07:19:59;54.01;32.77;70.96;;
46393;Laerm;32099;53.588;10.176;2023-06-22T07:22:24;52.19;31.97;69.80;;
46393;Laerm;32099;53.588;10.176;2023-06-22T07:24:49;40.24;31.71;55.90;;
46393;Laerm;32099;53.588;10.176;2023-06-22T07:27:15;49.48;31.78;67.12;;
46393;Laerm;32099;53.588;10.176;2023-06-22T07:29:43;50.74;32.25;69.05;;
46393;Laerm;32099;53.588;10.176;2023-06-22T07:32:09;50.75;33.40;69.23;;
46393;Laerm;32099;53.588;10.176;2023-06-22T07:34:34;50.20;36.18;69.71;;
46393;Laerm;32099;53.588;10.176;2023-06-22T07:36:59;55.44;33.53;74.79;;
46393;Laerm;32099;53.588;10.176;2023-06-22T07:39:24;41.06;31.75;59.87;;
46393;Laerm;32099;53.588;10.176;2023-06-22T07:41:51;48.77;31.44;66.93;;
46393;Laerm;32099;53.588;10.176;2023-06-22T07:44:17;40.30;31.86;63.55;;
46393;Laerm;32099;53.588;10.176;2023-06-22T07:46:42;43.66;31.58;65.63;;
46393;Laerm;32099;53.588;10.176;2023-06-22T07:49:07;48.10;32.93;66.64;;
46393;Laerm;32099;53.588;10.176;2023-06-22T07:51:35;48.98;33.48;60.26;;
46393;Laerm;32099;53.588;10.176;2023-06-22T07:54:00;47.43;32.68;65.30;;
46393;Laerm;32099;53.588;10.176;2023-06-22T07:56:26;53.52;33.59;70.45;;
46393;Laerm;32099;53.588;10.176;2023-06-22T07:58:51;52.24;32.38;66.87;;
46393;Laerm;32099;53.588;10.176;2023-06-22T08:01:17;46.09;34.42;61.08;;
46393;Laerm;32099;53.588;10.176;2023-06-22T08:03:43;49.12;32.21;66.56;;
46393;Laerm;32099;53.588;10.176;2023-06-22T08:06:09;59.20;31.53;91.12;;
46393;Laerm;32099;53.588;10.176;2023-06-22T08:08:35;49.12;30.80;65.84;;
46393;Laerm;32099;53.588;10.176;2023-06-22T08:11:00;46.20;32.10;65.80;;
46393;Laerm;32099;53.588;10.176;2023-06-22T08:13:26;51.29;32.62;68.68;;
46393;Laerm;32099;53.588;10.176;2023-06-22T08:15:51;49.54;31.98;66.01;;
46393;Laerm;32099;53.588;10.176;2023-06-22T08:18:16;50.31;31.85;66.08;;
46393;Laerm;32099;53.588;10.176;2023-06-22T08:20:42;45.54;32.67;57.27;;
46393;Laerm;32099;53.588;10.176;2023-06-22T08:23:07;50.76;33.00;65.33;;
46393;Laerm;32099;53.588;10.176;2023-06-22T08:25:34;52.30;33.69;71.96;;
46393;Laerm;32099;53.588;10.176;2023-06-22T08:28:00;38.43;31.58;48.55;;
46393;Laerm;32099;53.588;10.176;2023-06-22T08:30:25;51.91;32.97;70.59;;
46393;Laerm;32099;53.588;10.176;2023-06-22T08:32:51;55.99;34.31;73.05;;
46393;Laerm;32099;53.588;10.176;2023-06-22T08:35:16;55.56;32.54;74.53;;
46393;Laerm;32099;53.588;10.176;2023-06-22T08:37:41;52.26;32.16;71.39;;
46393;Laerm;32099;53.588;10.176;2023-06-22T08:40:08;43.13;32.05;62.08;;
46393;Laerm;32099;53.588;10.176;2023-06-22T08:42:35;52.90;31.51;72.27;;
46393;Laerm;32099;53.588;10.176;2023-06-22T08:45:00;50.44;33.01;65.20;;
46393;Laerm;32099;53.588;10.176;2023-06-22T08:47:27;59.88;51.65;65.82;;
46393;Laerm;32099;53.588;10.176;2023-06-22T08:49:52;60.10;51.88;68.75;;
46393;Laerm;32099;53.588;10.176;2023-06-22T08:52:18;61.49;52.47;66.89;;
46393;Laerm;32099;53.588;10.176;2023-06-22T08:54:45;53.16;35.57;67.70;;
46393;Laerm;32099;53.588;10.176;2023-06-22T08:57:10;44.52;33.40;66.54;;
46393;Laerm;32099;53.588;10.176;2023-06-22T08:59:35;51.31;33.86;67.83;;
46393;Laerm;32099;53.588;10.176;2023-06-22T09:02:00;49.78;32.68;69.09;;
46393;Laerm;32099;53.588;10.176;2023-06-22T09:04:26;56.54;34.20;77.18;;
46393;Laerm;32099;53.588;10.176;2023-06-22T09:06:51;44.56;38.76;54.52;;
46393;Laerm;32099;53.588;10.176;2023-06-22T09:09:17;45.66;32.15;61.61;;
46393;Laerm;32099;53.588;10.176;2023-06-22T09:11:43;47.59;35.98;64.77;;
46393;Laerm;32099;53.588;10.176;2023-06-22T09:14:09;53.93;32.58;79.35;;
46393;Laerm;32099;53.588;10.176;2023-06-22T09:16:34;61.88;32.00;84.62;;
46393;Laerm;32099;53.588;10.176;2023-06-22T09:19:00;45.69;31.80;66.85;;
46393;Laerm;32099;53.588;10.176;2023-06-22T09:21:25;55.32;33.63;73.99;;
46393;Laerm;32099;53.588;10.176;2023-06-22T09:23:50;53.70;30.89;73.35;;
46393;Laerm;32099;53.588;10.176;2023-06-22T09:26:19;51.95;30.62;73.87;;
46393;Laerm;32099;53.588;10.176;2023-06-22T09:28:45;47.24;31.99;71.37;;
46393;Laerm;32099;53.588;10.176;2023-06-22T09:31:10;50.45;33.17;67.97;;
46393;Laerm;32099;53.588;10.176;2023-06-22T09:33:36;46.60;31.53;69.05;;
46393;Laerm;32099;53.588;10.176;2023-06-22T09:36:04;52.47;32.38;72.97;;
46393;Laerm;32099;53.588;10.176;2023-06-22T09:38:34;49.23;32.19;68.69;;
46393;Laerm;32099;53.588;10.176;2023-06-22T09:41:00;52.09;32.03;69.41;;
46393;Laerm;32099;53.588;10.176;2023-06-22T09:43:25;49.69;32.61;67.19;;
46393;Laerm;32099;53.588;10.176;2023-06-22T09:45:50;51.34;33.20;70.18;;
46393;Laerm;32099;53.588;10.176;2023-06-22T09:48:16;57.43;33.16;74.08;;
46393;Laerm;32099;53.588;10.176;2023-06-22T09:50:41;51.49;32.24;70.28;;
46393;Laerm;32099;53.588;10.176;2023-06-22T09:53:06;52.65;31.16;67.36;;
46393;Laerm;32099;53.588;10.176;2023-06-22T09:55:32;42.63;31.45;63.36;;
46393;Laerm;32099;53.588;10.176;2023-06-22T09:57:57;51.04;31.21;66.27;;
46393;Laerm;32099;53.588;10.176;2023-06-22T10:00:22;44.26;32.33;63.97;;
46393;Laerm;32099;53.588;10.176;2023-06-22T10:02:48;49.80;33.01;69.13;;
46393;Laerm;32099;53.588;10.176;2023-06-22T10:05:13;48.71;32.61;67.02;;
46393;Laerm;32099;53.588;10.176;2023-06-22T10:07:39;51.62;32.84;69.69;;
46393;Laerm;32099;53.588;10.176;2023-06-22T10:10:08;51.01;33.75;68.96;;
46393;Laerm;32099;53.588;10.176;2023-06-22T10:12:33;49.69;33.79;67.63;;
46393;Laerm;32099;53.588;10.176;2023-06-22T10:14:58;51.36;31.80;71.38;;
46393;Laerm;32099;53.588;10.176;2023-06-22T10:17:23;49.85;32.19;67.27;;
46393;Laerm;32099;53.588;10.176;2023-06-22T10:19:49;48.73;32.41;67.22;;
46393;Laerm;32099;53.588;10.176;2023-06-22T10:22:14;51.68;31.93;65.10;;
46393;Laerm;32099;53.588;10.176;2023-06-22T10:24:39;54.97;33.85;69.92;;
46393;Laerm;32099;53.588;10.176;2023-06-22T10:27:12;52.76;32.83;68.11;;
46393;Laerm;32099;53.588;10.176;2023-06-22T10:29:38;48.87;32.63;66.04;;
46393;Laerm;32099;53.588;10.176;2023-06-22T10:32:04;51.32;32.51;68.50;;
46393;Laerm;32099;53.588;10.176;2023-06-22T10:34:29;52.28;31.76;69.95;;
46393;Laerm;32099;53.588;10.176;2023-06-22T10:36:54;50.04;31.13;70.16;;
46393;Laerm;32099;53.588;10.176;2023-06-22T10:39:20;51.69;31.57;67.63;;
46393;Laerm;32099;53.588;10.176;2023-06-22T10:41:45;48.34;33.39;67.24;;
46393;Laerm;32099;53.588;10.176;2023-06-22T10:44:10;49.59;31.43;69.42;;
46393;Laerm;32099;53.588;10.176;2023-06-22T10:46:35;51.32;32.00;74.06;;
46393;Laerm;32099;53.588;10.176;2023-06-22T10:49:01;56.97;32.25;73.87;;
46393;Laerm;32099;53.588;10.176;2023-06-22T10:51:26;56.78;32.25;75.53;;
46393;Laerm;32099;53.588;10.176;2023-06-22T10:53:53;57.11;31.28;74.91;;
46393;Laerm;32099;53.588;10.176;2023-06-22T10:56:18;56.81;32.38;75.00;;
46393;Laerm;32099;53.588;10.176;2023-06-22T10:58:45;54.91;31.28;71.53;;
46393;Laerm;32099;53.588;10.176;2023-06-22T11:01:10;53.68;31.79;70.25;;
46393;Laerm;32099;53.588;10.176;2023-06-22T11:03:35;53.82;42.00;70.57;;
46393;Laerm;32099;53.588;10.176;2023-06-22T11:06:01;50.60;35.25;70.68;;
46393;Laerm;32099;53.588;10.176;2023-06-22T11:08:26;46.04;32.02;64.87;;
46393;Laerm;32099;53.588;10.176;2023-06-22T11:10:51;55.93;32.34;71.81;;
46393;Laerm;32099;53.588;10.176;2023-06-22T11:13:17;44.62;31.97;69.16;;
46393;Laerm;32099;53.588;10.176;2023-06-22T11:15:42;47.63;32.10;77.61;;
46393;Laerm;32099;53.588;10.176;2023-06-22T11:18:07;52.97;30.93;70.99;;
46393;Laerm;32099;53.588;10.176;2023-06-22T11:20:33;51.78;30.66;73.14;;
46393;Laerm;32099;53.588;10.176;2023-06-22T11:23:03;47.26;31.56;63.13;;
46393;Laerm;32099;53.588;10.176;2023-06-22T11:25:28;46.95;33.93;65.34;;
46393;Laerm;32099;53.588;10.176;2023-06-22T11:27:54;46.55;33.16;66.62;;
46393;Laerm;32099;53.588;10.176;2023-06-22T11:30:19;50.76;31.92;69.86;;
46393;Laerm;32099;53.588;10.176;2023-06-22T11:32:45;49.49;32.65;69.91;;
46393;Laerm;32099;53.588;10.176;2023-06-22T11:35:10;46.78;31.89;66.77;;
46393;Laerm;32099;53.588;10.176;2023-06-22T11:37:35;57.67;32.68;75.05;;
46393;Laerm;32099;53.588;10.176;2023-06-22T11:40:00;53.79;31.36;73.81;;
46393;Laerm;32099;53.588;10.176;2023-06-22T11:42:26;55.41;31.57;73.54;;
46393;Laerm;32099;53.588;10.176;2023-06-22T11:44:51;56.18;31.56;76.50;;
46393;Laerm;32099;53.588;10.176;2023-06-22T11:47:16;55.52;31.19;72.68;;
46393;Laerm;32099;53.588;10.176;2023-06-22T11:49:42;54.79;32.29;73.87;;
46393;Laerm;32099;53.588;10.176;2023-06-22T11:52:07;55.45;31.61;72.22;;
46393;Laerm;32099;53.588;10.176;2023-06-22T11:54:32;55.21;31.88;71.81;;
46393;Laerm;32099;53.588;10.176;2023-06-22T11:56:58;55.81;30.77;73.65;;
46393;Laerm;32099;53.588;10.176;2023-06-22T11:59:24;54.57;31.25;72.05;;
46393;Laerm;32099;53.588;10.176;2023-06-22T12:01:49;56.07;31.65;71.79;;
46393;Laerm;32099;53.588;10.176;2023-06-22T12:04:16;53.34;32.22;70.99;;
46393;Laerm;32099;53.588;10.176;2023-06-22T12:06:41;54.22;31.66;72.78;;
46393;Laerm;32099;53.588;10.176;2023-06-22T12:09:08;53.03;31.24;72.46;;
46393;Laerm;32099;53.588;10.176;2023-06-22T12:11:34;55.35;31.02;71.79;;
46393;Laerm;32099;53.588;10.176;2023-06-22T12:13:59;56.99;32.93;73.41;;
46393;Laerm;32099;53.588;10.176;2023-06-22T12:16:27;55.75;31.91;71.87;;
46393;Laerm;32099;53.588;10.176;2023-06-22T12:18:52;52.36;31.73;70.77;;
46393;Laerm;32099;53.588;10.176;2023-06-22T12:21:18;55.64;31.49;72.54;;
46393;Laerm;32099;53.588;10.176;2023-06-22T12:23:44;53.95;31.72;70.03;;
46393;Laerm;32099;53.588;10.176;2023-06-22T12:26:09;36.84;31.70;49.94;;
46393;Laerm;32099;53.588;10.176;2023-06-22T12:28:34;52.36;32.41;81.11;;
46393;Laerm;32099;53.588;10.176;2023-06-22T12:30:59;56.84;33.58;82.28;;
46393;Laerm;32099;53.588;10.176;2023-06-22T12:33:25;56.47;32.92;76.78;;
46393;Laerm;32099;53.588;10.176;2023-06-22T12:35:50;44.79;33.20;61.56;;
46393;Laerm;32099;53.588;10.176;2023-06-22T12:38:15;53.09;33.72;71.42;;
46393;Laerm;32099;53.588;10.176;2023-06-22T12:40:41;53.00;35.09;67.46;;
46393;Laerm;32099;53.588;10.176;2023-06-22T12:43:06;49.78;33.37;66.83;;
46393;Laerm;32099;53.588;10.176;2023-06-22T12:45:32;50.64;33.30;67.46;;
46393;Laerm;32099;53.588;10.176;2023-06-22T12:47:58;52.56;33.46;66.42;;
46393;Laerm;32099;53.588;10.176;2023-06-22T12:50:24;49.66;35.49;65.06;;
46393;Laerm;32099;53.588;10.176;2023-06-22T12:52:50;55.01;34.14;70.89;;
46393;Laerm;32099;53.588;10.176;2023-06-22T12:55:15;53.89;35.72;68.08;;
46393;Laerm;32099;53.588;10.176;2023-06-22T12:57:40;53.90;33.69;73.21;;
46393;Laerm;32099;53.588;10.176;2023-06-22T13:00:06;55.07;32.14;75.67;;
46393;Laerm;32099;53.588;10.176;2023-06-22T13:02:35;54.65;33.00;72.74;;
46393;Laerm;32099;53.588;10.176;2023-06-22T13:05:01;52.17;35.05;70.63;;
46393;Laerm;32099;53.588;10.176;2023-06-22T13:07:27;52.54;33.83;76.09;;
46393;Laerm;32099;53.588;10.176;2023-06-22T13:09:52;59.78;32.96;77.34;;
46393;Laerm;32099;53.588;10.176;2023-06-22T13:12:17;60.15;32.25;77.78;;
46393;Laerm;32099;53.588;10.176;2023-06-22T13:14:43;59.03;33.39;78.91;;
46393;Laerm;32099;53.588;10.176;2023-06-22T13:17:08;59.92;33.24;78.51;;
46393;Laerm;32099;53.588;10.176;2023-06-22T13:19:34;58.62;33.92;76.02;;
46393;Laerm;32099;53.588;10.176;2023-06-22T13:21:59;59.64;33.77;79.11;;
46393;Laerm;32099;53.588;10.176;2023-06-22T13:24:25;59.05;32.42;77.56;;
46393;Laerm;32099;53.588;10.176;2023-06-22T13:26:50;56.82;32.63;77.68;;
46393;Laerm;32099;53.588;10.176;2023-06-22T13:29:15;41.10;34.48;55.47;;
46393;Laerm;32099;53.588;10.176;2023-06-22T13:31:41;43.86;33.91;64.36;;
46393;Laerm;32099;53.588;10.176;2023-06-22T13:34:06;54.69;32.90;71.45;;